createdAt,value
2017-10-27T00:00:24.981Z,100.00
2017-10-27T00:01:34.613Z,100.00
2017-10-27T00:02:44.327Z,100.00
2017-10-27T00:03:54.893Z,100.00
2017-10-27T00:05:03.689Z,100.00
2017-10-27T00:06:13.168Z,100.00
2017-10-27T00:07:22.843Z,100.00
2017-10-27T00:08:32.328Z,100.00
2017-10-27T00:09:42.040Z,100.00
2017-10-27T00:10:52.197Z,100.00
2017-10-27T00:12:01.312Z,100.00
2017-10-27T00:13:10.931Z,100.00
2017-10-27T00:14:20.567Z,100.00
2017-10-27T00:15:30.118Z,100.00
2017-10-27T00:16:39.793Z,100.00
2017-10-27T00:17:49.362Z,100.00
2017-10-27T00:18:58.993Z,100.00
2017-10-27T00:20:08.589Z,100.00
2017-10-27T00:21:18.275Z,100.00
2017-10-27T00:22:27.842Z,100.00
2017-10-27T00:23:37.480Z,100.00
2017-10-27T00:24:47.156Z,100.00
2017-10-27T00:25:56.973Z,100.00
2017-10-27T00:27:06.369Z,100.00
2017-10-27T00:28:16.057Z,100.00
2017-10-27T00:29:25.692Z,100.00
2017-10-27T00:30:36.343Z,100.00
2017-10-27T00:31:46.120Z,100.00
2017-10-27T00:32:54.670Z,100.00
2017-10-27T00:34:05.145Z,100.00
2017-10-27T00:35:13.852Z,100.00
2017-10-27T00:36:23.501Z,100.00
2017-10-27T00:37:33.118Z,100.00
2017-10-27T00:38:42.753Z,100.00
2017-10-27T00:39:52.288Z,100.00
2017-10-27T00:41:02.018Z,100.00
2017-10-27T00:42:11.583Z,100.00
2017-10-27T00:43:21.175Z,100.00
2017-10-27T00:44:30.819Z,100.00
2017-10-27T00:45:40.532Z,100.00
2017-10-27T00:46:50.083Z,100.00
2017-10-27T00:47:59.713Z,100.00
2017-10-27T00:49:09.862Z,100.00
2017-10-27T00:50:18.981Z,100.00
2017-10-27T00:51:28.719Z,100.00
2017-10-27T00:52:38.191Z,100.00
2017-10-27T00:53:47.812Z,100.00
2017-10-27T00:54:57.519Z,100.00
2017-10-27T00:56:07.145Z,100.00
2017-10-27T00:57:16.793Z,100.00
2017-10-27T00:58:26.381Z,100.00
2017-10-27T00:59:36.014Z,100.00
2017-10-27T01:00:45.572Z,100.00
2017-10-27T01:01:55.220Z,100.00
2017-10-27T01:03:04.838Z,100.00
2017-10-27T01:04:14.403Z,100.00
2017-10-27T01:05:24.183Z,100.00
2017-10-27T01:06:33.639Z,100.00
2017-10-27T01:07:43.267Z,100.00
2017-10-27T01:08:52.861Z,100.00
2017-10-27T01:10:02.476Z,100.00
2017-10-27T01:11:12.111Z,100.00
2017-10-27T01:12:22.324Z,100.00
2017-10-27T01:13:31.428Z,100.00
2017-10-27T01:14:41.036Z,100.00
2017-10-27T01:15:50.593Z,100.00
2017-10-27T01:17:00.225Z,100.00
2017-10-27T01:18:09.873Z,100.00
2017-10-27T01:19:20.415Z,100.00
2017-10-27T01:20:29.542Z,100.00
2017-10-27T01:21:38.759Z,100.00
2017-10-27T01:22:49.494Z,100.00
2017-10-27T01:23:58.438Z,100.00
2017-10-27T01:25:07.555Z,100.00
2017-10-27T01:26:17.189Z,100.00
2017-10-27T01:27:26.733Z,100.00
2017-10-27T01:28:36.349Z,100.00
2017-10-27T01:29:46.004Z,100.00
2017-10-27T01:30:55.617Z,100.00
2017-10-27T01:32:05.222Z,100.00
2017-10-27T01:33:14.796Z,100.00
2017-10-27T01:34:24.412Z,100.00
2017-10-27T01:35:34.043Z,100.00
2017-10-27T01:36:43.576Z,100.00
2017-10-27T01:37:53.550Z,100.00
2017-10-27T01:39:02.757Z,100.00
2017-10-27T01:40:12.376Z,100.00
2017-10-27T01:41:21.975Z,100.00
2017-10-27T01:42:31.666Z,100.00
2017-10-27T01:43:41.174Z,100.00
2017-10-27T01:44:50.878Z,100.00
2017-10-27T01:46:00.508Z,100.00
2017-10-27T01:47:09.966Z,100.00
2017-10-27T01:48:19.777Z,100.00
2017-10-27T01:49:29.229Z,100.00
2017-10-27T01:50:38.840Z,100.00
2017-10-27T01:51:48.393Z,100.00
2017-10-27T01:52:58.042Z,100.00
2017-10-27T01:54:07.556Z,100.00
2017-10-27T01:55:17.127Z,100.00
2017-10-27T01:56:26.728Z,100.00
2017-10-27T01:57:36.353Z,100.00
2017-10-27T01:58:46.003Z,100.00
2017-10-27T01:59:55.527Z,100.00
2017-10-27T02:01:05.147Z,100.00
2017-10-27T02:02:14.885Z,100.00
2017-10-27T02:03:24.331Z,100.00
2017-10-27T02:04:33.860Z,100.00
2017-10-27T02:05:43.452Z,100.00
2017-10-27T02:06:53.124Z,100.00
2017-10-27T02:08:02.662Z,100.00
2017-10-27T02:09:12.223Z,100.00
2017-10-27T02:10:21.905Z,100.00
2017-10-27T02:11:31.401Z,100.00
2017-10-27T02:12:41.067Z,100.00
2017-10-27T02:13:50.624Z,100.00
2017-10-27T02:15:01.155Z,100.00
2017-10-27T02:16:10.347Z,100.00
2017-10-27T02:17:19.360Z,100.00
2017-10-27T02:18:28.945Z,100.00
2017-10-27T02:19:38.558Z,100.00
2017-10-27T02:20:48.188Z,100.00
2017-10-27T02:21:57.794Z,100.00
2017-10-27T02:23:07.427Z,100.00
2017-10-27T02:24:16.901Z,100.00
2017-10-27T02:25:26.510Z,100.00
2017-10-27T02:26:36.049Z,100.00
2017-10-27T02:27:45.681Z,100.00
2017-10-27T02:28:55.433Z,100.00
2017-10-27T02:30:04.917Z,100.00
2017-10-27T02:31:14.476Z,100.00
2017-10-27T02:32:24.591Z,100.00
2017-10-27T02:33:33.671Z,100.00
2017-10-27T02:34:43.169Z,100.00
2017-10-27T02:35:52.720Z,100.00
2017-10-27T02:37:02.330Z,100.00
2017-10-27T02:38:11.964Z,100.00
2017-10-27T02:39:21.789Z,100.00
2017-10-27T02:40:31.126Z,100.00
2017-10-27T02:41:40.668Z,100.00
2017-10-27T02:42:50.249Z,100.00
2017-10-27T02:43:59.939Z,100.00
2017-10-27T02:45:09.438Z,100.00
2017-10-27T02:46:19.085Z,100.00
2017-10-27T02:47:29.138Z,100.00
2017-10-27T02:48:38.767Z,100.00
2017-10-27T02:49:47.897Z,100.00
2017-10-27T02:50:57.413Z,100.00
2017-10-27T02:52:07.559Z,100.00
2017-10-27T02:53:16.560Z,100.00
2017-10-27T02:54:26.237Z,100.00
2017-10-27T02:55:35.737Z,100.00
2017-10-27T02:56:45.322Z,100.00
2017-10-27T02:57:54.911Z,100.00
2017-10-27T02:59:04.640Z,100.00
2017-10-27T03:00:14.196Z,100.00
2017-10-27T03:01:24.217Z,100.00
2017-10-27T03:02:33.256Z,100.00
2017-10-27T03:03:42.861Z,100.00
2017-10-27T03:04:52.513Z,100.00
2017-10-27T03:06:02.539Z,100.00
2017-10-27T03:07:11.590Z,100.00
2017-10-27T03:08:21.173Z,100.00
2017-10-27T03:09:30.851Z,100.00
2017-10-27T03:10:40.321Z,100.00
2017-10-27T03:11:50.060Z,100.00
2017-10-27T03:12:59.544Z,100.00
2017-10-27T03:14:09.151Z,100.00
2017-10-27T03:16:28.311Z,100.00
2017-10-27T03:17:37.841Z,100.00
2017-10-27T03:18:47.372Z,100.00
2017-10-27T03:19:57.027Z,100.00
2017-10-27T03:21:06.534Z,100.00
2017-10-27T03:22:16.244Z,100.00
2017-10-27T03:23:25.651Z,100.00
2017-10-27T03:24:35.251Z,100.00
2017-10-27T03:25:44.870Z,100.00
2017-10-27T03:26:54.473Z,100.00
2017-10-27T03:28:03.901Z,100.00
2017-10-27T03:29:13.634Z,100.00
2017-10-27T03:30:23.102Z,100.00
2017-10-27T03:31:32.591Z,100.00
2017-10-27T03:32:42.250Z,100.00
2017-10-27T03:33:51.777Z,100.00
2017-10-27T03:35:01.567Z,100.00
2017-10-27T03:36:11.353Z,100.00
2017-10-27T03:37:20.472Z,100.00
2017-10-27T03:38:29.969Z,100.00
2017-10-27T03:39:39.634Z,100.00
2017-10-27T03:40:49.073Z,100.00
2017-10-27T03:41:58.697Z,100.00
2017-10-27T03:43:08.189Z,100.00
2017-10-27T03:44:17.762Z,100.00
2017-10-27T03:45:28.309Z,100.00
2017-10-27T03:46:36.924Z,100.00
2017-10-27T03:47:46.414Z,100.00
2017-10-27T03:48:55.968Z,100.00
2017-10-27T03:50:05.541Z,100.00
2017-10-27T03:51:16.172Z,100.00
2017-10-27T03:52:24.661Z,100.00
2017-10-27T03:53:34.218Z,100.00
2017-10-27T03:54:43.912Z,100.00
2017-10-27T03:55:53.915Z,100.00
2017-10-27T03:57:02.905Z,100.00
2017-10-27T03:58:12.513Z,100.00
2017-10-27T03:59:21.965Z,100.00
2017-10-27T04:00:31.608Z,100.00
2017-10-27T04:01:41.123Z,100.00
2017-10-27T04:02:50.658Z,100.00
2017-10-27T04:04:00.288Z,100.00
2017-10-27T04:05:09.847Z,100.00
2017-10-27T04:06:19.424Z,100.00
2017-10-27T04:07:28.877Z,100.00
2017-10-27T04:08:38.511Z,100.00
2017-10-27T04:09:48.043Z,100.00
2017-10-27T04:10:57.755Z,100.00
2017-10-27T04:12:07.104Z,100.00
2017-10-27T04:13:16.742Z,100.00
2017-10-27T04:14:26.272Z,100.00
2017-10-27T04:15:35.876Z,100.00
2017-10-27T04:16:45.503Z,100.00
2017-10-27T04:17:54.959Z,100.00
2017-10-27T04:19:04.425Z,100.00
2017-10-27T04:20:14.046Z,100.00
2017-10-27T04:21:23.558Z,100.00
2017-10-27T04:22:33.180Z,100.00
2017-10-27T04:23:42.714Z,100.00
2017-10-27T04:24:52.422Z,100.00
2017-10-27T04:26:01.891Z,100.00
2017-10-27T04:27:11.343Z,100.00
2017-10-27T04:28:20.887Z,100.00
2017-10-27T04:29:30.478Z,100.00
2017-10-27T04:30:40.291Z,100.00
2017-10-27T04:31:49.633Z,100.00
2017-10-27T04:32:59.163Z,100.00
2017-10-27T04:34:08.694Z,100.00
2017-10-27T04:35:18.245Z,100.00
2017-10-27T04:36:27.860Z,100.00
2017-10-27T04:37:37.390Z,100.00
2017-10-27T04:38:46.918Z,100.00
2017-10-27T04:39:56.526Z,100.00
2017-10-27T04:41:05.992Z,100.00
2017-10-27T04:42:15.509Z,100.00
2017-10-27T04:43:25.034Z,100.00
2017-10-27T04:44:34.672Z,100.00
2017-10-27T04:45:44.232Z,100.00
2017-10-27T04:46:53.660Z,100.00
2017-10-27T04:48:03.203Z,100.00
2017-10-27T04:49:12.795Z,100.00
2017-10-27T04:50:22.619Z,100.00
2017-10-27T04:51:31.857Z,100.00
2017-10-27T04:52:41.386Z,100.00
2017-10-27T04:53:50.991Z,100.00
2017-10-27T04:55:00.450Z,100.00
2017-10-27T04:56:10.162Z,100.00
2017-10-27T04:57:19.518Z,100.00
2017-10-27T04:58:29.138Z,100.00
2017-10-27T04:59:38.571Z,100.00
2017-10-27T05:00:48.215Z,100.00
2017-10-27T05:01:57.733Z,100.00
2017-10-27T05:03:07.256Z,100.00
2017-10-27T05:04:16.704Z,100.00
2017-10-27T05:05:26.342Z,100.00
2017-10-27T05:06:35.850Z,100.00
2017-10-27T05:07:46.303Z,100.00
2017-10-27T05:08:54.858Z,100.00
2017-10-27T05:10:04.390Z,100.00
2017-10-27T05:11:13.988Z,100.00
2017-10-27T05:12:23.504Z,100.00
2017-10-27T05:13:32.995Z,100.00
2017-10-27T05:14:42.538Z,100.00
2017-10-27T05:15:52.110Z,100.00
2017-10-27T05:17:01.573Z,100.00
2017-10-27T05:18:11.230Z,100.00
2017-10-27T05:19:20.761Z,100.00
2017-10-27T05:20:30.199Z,100.00
2017-10-27T05:21:39.747Z,100.00
2017-10-27T05:22:49.253Z,100.00
2017-10-27T05:23:58.814Z,100.00
2017-10-27T05:25:08.343Z,100.00
2017-10-27T05:26:18.052Z,100.00
2017-10-27T05:27:27.374Z,100.00
2017-10-27T05:28:36.891Z,100.00
2017-10-27T05:29:46.536Z,100.00
2017-10-27T05:30:56.007Z,100.00
2017-10-27T05:32:05.522Z,100.00
2017-10-27T05:33:15.054Z,100.00
2017-10-27T05:34:24.582Z,100.00
2017-10-27T05:35:34.147Z,100.00
2017-10-27T05:36:43.638Z,100.00
2017-10-27T05:37:53.186Z,100.00
2017-10-27T05:39:02.715Z,100.00
2017-10-27T05:40:12.244Z,100.00
2017-10-27T05:41:21.781Z,100.00
2017-10-27T05:42:31.294Z,100.00
2017-10-27T05:43:40.808Z,100.00
2017-10-27T05:44:50.359Z,100.00
2017-10-27T05:45:59.883Z,100.00
2017-10-27T05:47:09.632Z,100.00
2017-10-27T05:48:18.953Z,100.00
2017-10-27T05:49:28.476Z,100.00
2017-10-27T05:50:38.043Z,100.00
2017-10-27T05:51:47.543Z,100.00
2017-10-27T05:52:57.030Z,100.00
2017-10-27T05:54:06.614Z,100.00
2017-10-27T05:55:16.641Z,100.00
2017-10-27T05:56:25.676Z,100.00
2017-10-27T05:57:35.140Z,100.00
2017-10-27T05:58:44.725Z,100.00
2017-10-27T05:59:54.251Z,100.00
2017-10-27T06:01:03.968Z,100.00
2017-10-27T06:02:13.396Z,100.00
2017-10-27T06:03:23.262Z,100.00
2017-10-27T06:04:32.272Z,100.00
2017-10-27T06:05:42.009Z,100.00
2017-10-27T06:06:51.331Z,100.00
2017-10-27T06:08:00.838Z,100.00
2017-10-27T06:09:10.361Z,100.00
2017-10-27T06:10:20.446Z,100.00
2017-10-27T06:11:29.542Z,100.00
2017-10-27T06:12:39.058Z,100.00
2017-10-27T06:13:48.520Z,100.00
2017-10-27T06:14:57.950Z,100.00
2017-10-27T06:16:07.513Z,100.00
2017-10-27T06:17:16.979Z,100.00
2017-10-27T06:18:26.513Z,100.00
2017-10-27T06:19:36.065Z,100.00
2017-10-27T06:20:45.610Z,100.00
2017-10-27T06:21:55.133Z,100.00
2017-10-27T06:23:04.560Z,100.00
2017-10-27T06:24:14.085Z,100.00
2017-10-27T06:25:23.613Z,100.00
2017-10-27T06:26:33.120Z,100.00
2017-10-27T06:27:42.594Z,100.00
2017-10-27T06:28:52.108Z,100.00
2017-10-27T06:30:01.607Z,100.00
2017-10-27T06:31:11.183Z,100.00
2017-10-27T06:32:20.634Z,100.00
2017-10-27T06:33:30.132Z,100.00
2017-10-27T06:34:40.169Z,100.00
2017-10-27T06:35:49.221Z,100.00
2017-10-27T06:36:58.716Z,100.00
2017-10-27T06:38:08.757Z,100.00
2017-10-27T06:39:17.681Z,100.00
2017-10-27T06:40:27.163Z,100.00
2017-10-27T06:41:36.916Z,100.00
2017-10-27T06:42:46.266Z,100.00
2017-10-27T06:43:55.662Z,100.00
2017-10-27T06:45:05.223Z,100.00
2017-10-27T06:46:14.705Z,100.00
2017-10-27T06:47:24.193Z,100.00
2017-10-27T06:48:33.692Z,100.00
2017-10-27T06:49:43.243Z,100.00
2017-10-27T06:50:52.791Z,100.00
2017-10-27T06:52:02.204Z,100.00
2017-10-27T06:53:11.705Z,100.00
2017-10-27T06:54:22.192Z,100.00
2017-10-27T06:55:30.794Z,100.00
2017-10-27T06:56:40.248Z,100.00
2017-10-27T06:57:49.731Z,100.00
2017-10-27T06:58:59.222Z,100.00
2017-10-27T07:00:08.712Z,100.00
2017-10-27T07:01:18.267Z,100.00
2017-10-27T07:02:27.748Z,100.00
2017-10-27T07:03:37.229Z,100.00
2017-10-27T07:04:46.904Z,100.00
2017-10-27T07:05:56.273Z,100.00
2017-10-27T07:07:05.751Z,100.00
2017-10-27T07:08:15.248Z,100.00
2017-10-27T07:09:24.850Z,100.00
2017-10-27T07:10:34.268Z,100.00
2017-10-27T07:11:43.962Z,100.00
2017-10-27T07:12:53.298Z,100.00
2017-10-27T07:14:02.943Z,100.00
2017-10-27T07:15:12.396Z,100.00
2017-10-27T07:16:21.850Z,100.00
2017-10-27T07:17:31.360Z,100.00
2017-10-27T07:18:40.960Z,100.00
2017-10-27T07:19:50.417Z,100.00
2017-10-27T07:20:59.896Z,100.00
2017-10-27T07:22:10.064Z,100.00
2017-10-27T07:23:18.920Z,100.00
2017-10-27T07:24:28.440Z,100.00
2017-10-27T07:25:37.966Z,100.00
2017-10-27T07:26:47.519Z,100.00
2017-10-27T07:27:57.025Z,100.00
2017-10-27T07:29:06.511Z,100.00
2017-10-27T07:30:16.092Z,100.00
2017-10-27T07:31:25.634Z,100.00
2017-10-27T07:32:35.147Z,100.00
2017-10-27T07:33:44.681Z,100.00
2017-10-27T07:34:54.210Z,100.00
2017-10-27T07:36:03.923Z,100.00
2017-10-27T07:37:13.290Z,100.00
2017-10-27T07:38:23.218Z,100.00
2017-10-27T07:39:32.333Z,100.00
2017-10-27T07:40:41.938Z,100.00
2017-10-27T07:41:51.814Z,100.00
2017-10-27T07:43:01.438Z,100.00
2017-10-27T07:44:10.379Z,100.00
2017-10-27T07:45:20.392Z,100.00
2017-10-27T07:46:29.446Z,100.00
2017-10-27T07:47:39.042Z,100.00
2017-10-27T07:48:48.489Z,100.00
2017-10-27T07:49:58.106Z,100.00
2017-10-27T07:51:07.658Z,100.00
2017-10-27T07:52:17.243Z,100.00
2017-10-27T07:53:26.598Z,100.00
2017-10-27T07:54:36.227Z,100.00
2017-10-27T07:55:45.757Z,100.00
2017-10-27T07:56:55.286Z,100.00
2017-10-27T07:58:04.818Z,100.00
2017-10-27T07:59:14.263Z,99.37
2017-10-27T08:00:23.882Z,100.00
2017-10-27T08:01:33.424Z,100.00
2017-10-27T08:02:43.529Z,100.00
2017-10-27T08:03:52.471Z,100.00
2017-10-27T08:05:02.513Z,100.00
2017-10-27T08:06:11.503Z,100.00
2017-10-27T08:07:21.014Z,100.00
2017-10-27T08:08:31.104Z,100.00
2017-10-27T08:09:40.113Z,99.63
2017-10-27T08:10:49.667Z,98.38
2017-10-27T08:11:59.317Z,98.03
2017-10-27T08:14:18.764Z,97.73
2017-10-27T08:15:29.200Z,95.22
2017-10-27T08:16:37.602Z,91.73
2017-10-27T08:17:47.520Z,91.27
2017-10-27T08:18:57.056Z,94.62
2017-10-27T08:20:06.103Z,93.31
2017-10-27T08:21:15.616Z,90.68
2017-10-27T08:24:44.321Z,85.78
2017-10-27T08:25:54.001Z,87.19
2017-10-27T08:27:03.913Z,86.63
2017-10-27T08:28:13.429Z,88.27
2017-10-27T08:29:22.551Z,89.58
2017-10-27T08:30:32.078Z,88.72
2017-10-27T08:31:41.631Z,87.26
2017-10-27T08:32:51.141Z,88.58
2017-10-27T08:34:00.709Z,87.54
2017-10-27T08:35:10.303Z,87.52
2017-10-27T08:36:19.857Z,89.57
2017-10-27T08:37:29.467Z,84.46
2017-10-27T08:38:38.996Z,85.65
2017-10-27T08:39:48.532Z,85.12
2017-10-27T08:40:58.104Z,83.10
2017-10-27T08:42:07.707Z,83.20
2017-10-27T08:43:17.223Z,82.51
2017-10-27T08:44:26.857Z,82.52
2017-10-27T08:45:36.391Z,81.89
2017-10-27T08:46:45.957Z,80.96
2017-10-27T08:47:55.572Z,78.91
2017-10-27T08:49:05.109Z,79.10
2017-10-27T08:50:15.225Z,81.00
2017-10-27T08:51:24.530Z,78.40
2017-10-27T08:52:34.084Z,75.59
2017-10-27T08:53:43.617Z,73.92
2017-10-27T08:54:53.299Z,74.09
2017-10-27T08:56:02.894Z,71.70
2017-10-27T08:57:12.701Z,73.06
2017-10-27T08:58:22.215Z,75.26
2017-10-27T08:59:31.878Z,74.08
2017-10-27T09:00:41.473Z,73.94
2017-10-27T09:01:52.080Z,72.43
2017-10-27T09:03:00.716Z,73.00
2017-10-27T09:05:20.384Z,75.89
2017-10-27T09:06:30.021Z,75.71
2017-10-27T09:07:39.364Z,76.41
2017-10-27T09:09:59.216Z,76.25
2017-10-27T09:11:08.592Z,76.51
2017-10-27T09:12:18.490Z,77.69
2017-10-27T09:13:28.695Z,79.56
2017-10-27T09:14:39.530Z,77.57
2017-10-27T09:15:47.003Z,79.18
2017-10-27T09:16:56.890Z,77.52
2017-10-27T09:18:06.913Z,77.63
2017-10-27T09:19:16.984Z,80.77
2017-10-27T09:20:26.612Z,79.83
2017-10-27T09:21:35.318Z,79.78
2017-10-27T09:23:55.485Z,78.86
2017-10-27T09:25:04.178Z,79.50
2017-10-27T09:26:13.750Z,78.60
2017-10-27T09:27:23.335Z,80.16
2017-10-27T09:28:34.483Z,76.94
2017-10-27T09:30:52.364Z,76.45
2017-10-27T09:32:01.906Z,72.77
2017-10-27T09:34:22.914Z,72.81
2017-10-27T09:35:30.809Z,70.59
2017-10-27T09:36:41.406Z,70.58
2017-10-27T09:37:50.291Z,72.97
2017-10-27T09:39:01.646Z,73.09
2017-10-27T09:40:09.910Z,70.86
2017-10-27T09:41:19.246Z,72.51
2017-10-27T09:42:28.765Z,70.10
2017-10-27T09:43:38.348Z,69.17
2017-10-27T09:44:49.091Z,70.48
2017-10-27T09:45:57.861Z,72.62
2017-10-27T09:47:08.552Z,71.73
2017-10-27T09:48:17.089Z,73.36
2017-10-27T09:49:26.709Z,72.03
2017-10-27T09:50:36.447Z,72.46
2017-10-27T09:51:46.774Z,74.80
2017-10-27T09:52:55.803Z,76.29
2017-10-27T09:54:05.382Z,77.61
2017-10-27T09:55:15.033Z,78.11
2017-10-27T09:56:24.917Z,77.19
2017-10-27T09:57:34.336Z,79.88
2017-10-27T09:58:43.969Z,77.93
2017-10-27T09:59:53.678Z,78.56
2017-10-27T10:01:03.234Z,78.72
2017-10-27T10:02:12.867Z,77.74
2017-10-27T10:03:22.500Z,77.12
2017-10-27T10:04:32.136Z,74.49
2017-10-27T10:05:41.767Z,73.95
2017-10-27T10:06:51.444Z,74.49
2017-10-27T10:08:01.040Z,71.56
2017-10-27T10:09:10.766Z,71.95
2017-10-27T10:10:21.325Z,73.37
2017-10-27T10:11:29.982Z,73.50
2017-10-27T10:12:40.097Z,71.16
2017-10-27T10:13:49.246Z,69.65
2017-10-27T10:14:58.933Z,67.23
2017-10-27T10:16:08.523Z,70.04
2017-10-27T10:17:18.186Z,72.27
2017-10-27T10:18:27.834Z,71.74
2017-10-27T10:19:37.466Z,70.70
2017-10-27T10:20:47.272Z,73.12
2017-10-27T10:21:56.848Z,67.58
2017-10-27T11:02:56.626Z,67.17
2017-10-27T11:04:09.079Z,66.81
2017-10-27T11:05:18.855Z,66.22
2017-10-27T11:06:28.484Z,66.55
2017-10-27T11:07:38.198Z,66.55
2017-10-27T11:08:47.949Z,66.00
2017-10-27T11:09:57.658Z,64.81
2017-10-27T11:11:07.350Z,65.75
2017-10-27T11:12:17.133Z,64.67
2017-10-27T11:13:26.687Z,63.56
2017-10-27T11:14:36.355Z,63.56
2017-10-27T11:15:46.117Z,62.69
2017-10-27T11:16:56.075Z,59.44
2017-10-27T11:18:05.732Z,60.20
2017-10-27T11:19:15.568Z,58.52
2017-10-27T11:20:25.478Z,58.69
2017-10-27T11:21:35.433Z,59.05
2017-10-27T11:22:45.025Z,60.82
2017-10-27T11:23:55.326Z,58.22
2017-10-27T11:25:04.755Z,59.89
2017-10-27T11:26:14.491Z,59.03
2017-10-27T11:27:24.325Z,62.53
2017-10-27T11:28:34.106Z,61.99
2017-10-27T11:29:44.183Z,62.03
2017-10-27T11:30:53.813Z,63.63
2017-10-27T11:32:03.504Z,64.68
2017-10-27T11:33:13.309Z,66.21
2017-10-27T11:34:23.046Z,66.84
2017-10-27T11:35:32.736Z,66.38
2017-10-27T11:36:43.211Z,66.45
2017-10-27T11:37:53.280Z,66.38
2017-10-27T11:39:02.603Z,66.87
2017-10-27T11:40:11.883Z,67.06
2017-10-27T11:41:21.558Z,68.91
2017-10-27T11:42:31.639Z,69.91
2017-10-27T11:43:41.030Z,68.04
2017-10-27T11:44:50.733Z,69.17
2017-10-27T11:46:00.620Z,67.28
2017-10-27T11:47:10.297Z,63.64
2017-10-27T11:48:20.073Z,64.11
2017-10-27T11:49:29.910Z,62.22
2017-10-27T11:50:39.677Z,62.15
2017-10-27T11:51:49.843Z,62.17
2017-10-27T11:52:59.392Z,64.21
2017-10-27T11:54:10.282Z,61.43
2017-10-27T11:55:19.175Z,61.80
2017-10-27T11:56:29.051Z,61.34
2017-10-27T11:57:38.928Z,63.61
2017-10-27T11:58:48.742Z,63.78
2017-10-27T11:59:58.565Z,63.87
2017-10-27T12:01:08.394Z,65.31
2017-10-27T12:02:18.169Z,65.59
2017-10-27T12:03:27.961Z,66.04
2017-10-27T12:04:37.699Z,65.83
2017-10-27T12:05:47.461Z,66.83
2017-10-27T12:06:57.286Z,64.44
2017-10-27T12:08:07.109Z,62.90
2017-10-27T12:09:17.971Z,63.25
2017-10-27T12:10:26.782Z,62.20
2017-10-27T12:11:36.675Z,59.06
2017-10-27T12:12:46.679Z,60.00
2017-10-27T12:13:57.012Z,57.62
2017-10-27T12:15:07.465Z,57.66
2017-10-27T12:16:16.383Z,56.33
2017-10-27T12:17:26.332Z,57.84
2017-10-27T12:18:36.261Z,57.86
2017-10-27T12:19:46.110Z,56.68
2017-10-27T12:20:56.039Z,59.37
2017-10-27T12:22:05.881Z,58.36
2017-10-27T12:23:15.716Z,58.71
2017-10-27T12:24:25.569Z,59.27
2017-10-27T12:25:35.395Z,58.54
2017-10-27T12:26:45.460Z,60.91
2017-10-27T12:27:55.084Z,58.82
2017-10-27T12:29:04.902Z,58.08
2017-10-27T12:30:14.740Z,58.91
2017-10-27T12:31:24.478Z,59.42
2017-10-27T12:32:34.310Z,62.60
2017-10-27T12:33:44.229Z,65.56
2017-10-27T12:34:53.887Z,62.54
2017-10-27T12:36:03.676Z,62.21
2017-10-27T12:37:13.576Z,62.50
2017-10-27T12:38:23.269Z,63.29
2017-10-27T12:39:33.136Z,61.60
2017-10-27T12:40:43.048Z,62.09
2017-10-27T12:41:52.926Z,61.70
2017-10-27T12:43:02.850Z,59.74
2017-10-27T12:44:12.662Z,61.87
2017-10-27T12:45:22.599Z,59.68
2017-10-27T12:46:32.571Z,60.31
2017-10-27T12:47:42.545Z,59.89
2017-10-27T12:48:52.554Z,60.72
2017-10-27T12:50:02.433Z,58.91
2017-10-27T12:51:12.441Z,56.93
2017-10-27T12:52:22.378Z,58.94
2017-10-27T12:53:32.321Z,59.69
2017-10-27T12:54:42.280Z,57.86
2017-10-27T12:55:52.292Z,58.19
2017-10-27T12:57:02.267Z,56.87
2017-10-27T12:58:12.275Z,56.05
2017-10-27T12:59:22.232Z,56.52
2017-10-27T13:00:32.259Z,59.07
2017-10-27T13:01:42.207Z,56.57
2017-10-27T13:02:52.193Z,55.94
2017-10-27T13:04:02.128Z,55.59
2017-10-27T13:05:12.066Z,57.86
2017-10-27T13:06:21.983Z,57.91
2017-10-27T13:07:31.928Z,59.30
2017-10-27T13:08:41.841Z,59.44
2017-10-27T13:09:51.676Z,59.21
2017-10-27T13:11:01.528Z,60.78
2017-10-27T13:12:12.151Z,60.87
2017-10-27T13:13:21.247Z,60.47
2017-10-27T13:14:31.090Z,60.20
2017-10-27T13:15:40.918Z,60.17
2017-10-27T13:16:50.752Z,62.03
2017-10-27T13:18:00.622Z,60.95
2017-10-27T13:19:10.453Z,60.79
2017-10-27T13:20:20.383Z,60.43
2017-10-27T13:21:30.640Z,59.92
2017-10-27T13:22:40.112Z,58.78
2017-10-27T13:23:49.859Z,57.94
2017-10-27T13:24:59.850Z,58.86
2017-10-27T13:26:09.550Z,57.70
2017-10-27T13:27:19.389Z,58.12
2017-10-27T13:28:29.280Z,58.48
2017-10-27T13:29:39.120Z,59.59
2017-10-27T13:30:48.867Z,59.93
2017-10-27T13:31:58.758Z,61.84
2017-10-27T13:33:08.548Z,60.93
2017-10-27T13:34:18.240Z,62.46
2017-10-27T13:35:28.046Z,61.53
2017-10-27T13:36:37.919Z,61.42
2017-10-27T13:37:47.638Z,61.12
2017-10-27T13:38:57.487Z,61.82
2017-10-27T13:40:07.256Z,63.10
2017-10-27T13:41:17.062Z,62.46
2017-10-27T13:42:26.933Z,62.17
2017-10-27T13:43:36.667Z,61.69
2017-10-27T13:44:46.450Z,60.93
2017-10-27T13:45:56.412Z,61.38
2017-10-27T13:47:06.206Z,58.49
2017-10-27T13:48:16.189Z,58.99
2017-10-27T13:49:25.954Z,59.45
2017-10-27T13:50:36.407Z,59.34
2017-10-27T13:51:45.736Z,60.51
2017-10-27T13:52:55.649Z,61.07
2017-10-27T13:54:05.613Z,60.96
2017-10-27T13:55:16.133Z,60.66
2017-10-27T13:56:25.487Z,61.01
2017-10-27T13:57:35.628Z,60.06
2017-10-27T13:58:45.882Z,59.54
2017-10-27T13:59:55.324Z,61.82
2017-10-27T14:01:05.255Z,61.75
2017-10-27T14:02:16.653Z,60.25
2017-10-27T14:03:25.639Z,61.27
2017-10-27T14:04:35.071Z,60.66
2017-10-27T14:05:45.014Z,60.65
2017-10-27T14:06:55.470Z,59.75
2017-10-27T14:08:05.422Z,60.07
2017-10-27T14:09:15.416Z,61.40
2017-10-27T14:10:24.767Z,62.18
2017-10-27T14:11:34.686Z,62.21
2017-10-27T14:12:44.654Z,61.28
2017-10-27T14:13:54.566Z,58.99
2017-10-27T14:15:04.513Z,58.59
2017-10-27T14:16:14.473Z,58.33
2017-10-27T14:17:24.426Z,58.43
2017-10-27T14:18:34.805Z,58.59
2017-10-27T14:19:44.391Z,59.58
2017-10-27T14:20:54.133Z,60.23
2017-10-27T14:22:04.039Z,60.65
2017-10-27T14:23:14.037Z,61.01
2017-10-27T14:24:23.800Z,61.11
2017-10-27T14:25:33.686Z,60.56
2017-10-27T14:26:43.531Z,60.12
2017-10-27T14:27:53.476Z,60.79
2017-10-27T14:29:03.810Z,62.13
2017-10-27T14:30:13.181Z,62.97
2017-10-27T14:31:22.870Z,63.88
2017-10-27T14:32:32.796Z,64.14
2017-10-27T14:33:42.456Z,64.40
2017-10-27T14:34:52.280Z,66.55
2017-10-27T14:36:02.018Z,65.60
2017-10-27T14:37:12.785Z,65.12
2017-10-27T14:38:22.285Z,67.13
2017-10-27T14:39:31.404Z,66.88
2017-10-27T14:40:41.163Z,67.81
2017-10-27T14:41:50.973Z,67.48
2017-10-27T14:43:00.581Z,68.32
2017-10-27T14:44:11.391Z,67.91
2017-10-27T14:45:20.036Z,68.40
2017-10-27T14:46:29.764Z,69.10
2017-10-27T14:47:39.572Z,68.54
2017-10-27T14:48:49.735Z,68.39
2017-10-27T14:49:59.043Z,66.91
2017-10-27T14:51:08.778Z,67.37
2017-10-27T14:52:18.417Z,68.53
2017-10-27T14:53:28.169Z,66.81
2017-10-27T14:54:37.885Z,66.31
2017-10-27T14:55:47.602Z,66.77
2017-10-27T14:56:57.326Z,66.43
2017-10-27T14:58:07.124Z,67.45
2017-10-27T14:59:16.786Z,69.79
2017-10-27T15:00:26.528Z,67.96
2017-10-27T15:01:36.294Z,68.26
2017-10-27T15:02:46.047Z,65.94
2017-10-27T15:03:55.675Z,67.94
2017-10-27T15:05:05.909Z,67.45
2017-10-27T15:06:15.108Z,68.34
2017-10-27T15:07:25.386Z,70.05
2017-10-27T15:08:34.551Z,70.03
2017-10-27T15:09:44.236Z,70.14
2017-10-27T15:10:54.482Z,71.86
2017-10-27T15:12:03.707Z,72.44
2017-10-27T15:13:13.377Z,72.50
2017-10-27T15:14:23.626Z,74.20
2017-10-27T15:15:32.703Z,74.69
2017-10-27T15:16:42.445Z,74.17
2017-10-27T15:17:52.077Z,75.98
2017-10-27T15:19:01.808Z,77.54
2017-10-27T15:20:11.417Z,77.78
2017-10-27T15:21:21.075Z,76.93
2017-10-27T15:22:30.709Z,75.96
2017-10-27T15:23:40.628Z,77.03
2017-10-27T15:24:51.007Z,76.98
2017-10-27T15:25:59.649Z,80.28
2017-10-27T15:27:09.855Z,77.94
2017-10-27T15:28:18.947Z,79.71
2017-10-27T15:29:28.608Z,80.20
2017-10-27T15:30:38.751Z,80.55
2017-10-27T15:31:48.461Z,81.85